sensor_id;sensor_type;location;lat;lon;timestamp;P1;durP1;ratioP1;P2;durP2;ratioP2
42432;SDS011;28071;48.232;20.668;2023-05-15T00:02:52;0.13;;;0.13;;
42432;SDS011;28071;48.232;20.668;2023-05-15T00:07:52;0.32;;;0.32;;
42432;SDS011;28071;48.232;20.668;2023-05-15T00:12:53;0.40;;;0.40;;
42432;SDS011;28071;48.232;20.668;2023-05-15T00:17:54;0.40;;;0.40;;
42432;SDS011;28071;48.232;20.668;2023-05-15T00:22:54;1.40;;;0.90;;
42432;SDS011;28071;48.232;20.668;2023-05-15T00:27:55;0.55;;;0.40;;
42432;SDS011;28071;48.232;20.668;2023-05-15T00:32:56;0.77;;;0.40;;
42432;SDS011;28071;48.232;20.668;2023-05-15T00:37:56;0.30;;;0.30;;
42432;SDS011;28071;48.232;20.668;2023-05-15T00:42:57;0.55;;;0.28;;
42432;SDS011;28071;48.232;20.668;2023-05-15T00:47:59;0.38;;;0.25;;
42432;SDS011;28071;48.232;20.668;2023-05-15T00:53:00;0.38;;;0.38;;
42432;SDS011;28071;48.232;20.668;2023-05-15T00:58:02;1.45;;;0.50;;
42432;SDS011;28071;48.232;20.668;2023-05-15T01:03:03;0.52;;;0.38;;
42432;SDS011;28071;48.232;20.668;2023-05-15T01:08:12;0.43;;;0.35;;
42432;SDS011;28071;48.232;20.668;2023-05-15T01:13:21;0.52;;;0.50;;
42432;SDS011;28071;48.232;20.668;2023-05-15T01:18:22;3.97;;;0.43;;
42432;SDS011;28071;48.232;20.668;2023-05-15T01:23:24;0.22;;;0.22;;
42432;SDS011;28071;48.232;20.668;2023-05-15T01:28:56;0.22;;;0.22;;
42432;SDS011;28071;48.232;20.668;2023-05-15T01:34:05;0.13;;;0.13;;
42432;SDS011;28071;48.232;20.668;2023-05-15T01:39:07;0.88;;;0.30;;
42432;SDS011;28071;48.232;20.668;2023-05-15T01:44:13;0.45;;;0.35;;
42432;SDS011;28071;48.232;20.668;2023-05-15T01:49:22;0.50;;;0.25;;
42432;SDS011;28071;48.232;20.668;2023-05-15T01:54:26;0.35;;;0.30;;
42432;SDS011;28071;48.232;20.668;2023-05-15T01:59:29;0.85;;;0.50;;
42432;SDS011;28071;48.232;20.668;2023-05-15T02:04:30;0.20;;;0.20;;
42432;SDS011;28071;48.232;20.668;2023-05-15T02:09:32;0.40;;;0.40;;
42432;SDS011;28071;48.232;20.668;2023-05-15T02:14:34;2.15;;;0.60;;
42432;SDS011;28071;48.232;20.668;2023-05-15T02:19:36;0.40;;;0.40;;
42432;SDS011;28071;48.232;20.668;2023-05-15T02:24:36;0.57;;;0.45;;
42432;SDS011;28071;48.232;20.668;2023-05-15T02:40:48;0.80;;;0.55;;
42432;SDS011;28071;48.232;20.668;2023-05-15T02:45:50;0.45;;;0.45;;
42432;SDS011;28071;48.232;20.668;2023-05-15T02:50:51;0.93;;;0.52;;
42432;SDS011;28071;48.232;20.668;2023-05-15T02:55:52;0.50;;;0.50;;
42432;SDS011;28071;48.232;20.668;2023-05-15T03:00:52;0.77;;;0.40;;
42432;SDS011;28071;48.232;20.668;2023-05-15T03:05:53;0.47;;;0.47;;
42432;SDS011;28071;48.232;20.668;2023-05-15T03:10:53;0.35;;;0.30;;
42432;SDS011;28071;48.232;20.668;2023-05-15T03:15:54;0.43;;;0.43;;
42432;SDS011;28071;48.232;20.668;2023-05-15T03:20:54;0.50;;;0.50;;
42432;SDS011;28071;48.232;20.668;2023-05-15T03:25:55;0.80;;;0.55;;
42432;SDS011;28071;48.232;20.668;2023-05-15T03:30:55;0.55;;;0.50;;
42432;SDS011;28071;48.232;20.668;2023-05-15T03:35:56;0.52;;;0.38;;
42432;SDS011;28071;48.232;20.668;2023-05-15T03:40:56;0.50;;;0.50;;
42432;SDS011;28071;48.232;20.668;2023-05-15T03:45:57;0.25;;;0.25;;
42432;SDS011;28071;48.232;20.668;2023-05-15T03:50:58;0.95;;;0.88;;
42432;SDS011;28071;48.232;20.668;2023-05-15T03:55:58;1.55;;;0.55;;
42432;SDS011;28071;48.232;20.668;2023-05-15T04:00:59;0.43;;;0.43;;
42432;SDS011;28071;48.232;20.668;2023-05-15T04:05:59;0.68;;;0.45;;
42432;SDS011;28071;48.232;20.668;2023-05-15T04:10:59;0.40;;;0.40;;
42432;SDS011;28071;48.232;20.668;2023-05-15T04:16:00;0.63;;;0.45;;
42432;SDS011;28071;48.232;20.668;2023-05-15T04:21:02;0.68;;;0.68;;
42432;SDS011;28071;48.232;20.668;2023-05-15T04:26:03;0.10;;;0.10;;
42432;SDS011;28071;48.232;20.668;2023-05-15T04:31:03;0.20;;;0.20;;
42432;SDS011;28071;48.232;20.668;2023-05-15T04:36:08;0.60;;;0.43;;
42432;SDS011;28071;48.232;20.668;2023-05-15T04:41:09;0.35;;;0.35;;
42432;SDS011;28071;48.232;20.668;2023-05-15T04:46:10;0.50;;;0.50;;
42432;SDS011;28071;48.232;20.668;2023-05-15T04:51:10;0.80;;;0.68;;
42432;SDS011;28071;48.232;20.668;2023-05-15T04:56:11;0.73;;;0.73;;
42432;SDS011;28071;48.232;20.668;2023-05-15T05:01:11;1.02;;;0.57;;
42432;SDS011;28071;48.232;20.668;2023-05-15T05:06:12;0.30;;;0.30;;
42432;SDS011;28071;48.232;20.668;2023-05-15T05:11:12;0.57;;;0.30;;
42432;SDS011;28071;48.232;20.668;2023-05-15T05:16:12;0.52;;;0.50;;
42432;SDS011;28071;48.232;20.668;2023-05-15T05:21:13;1.02;;;0.70;;
42432;SDS011;28071;48.232;20.668;2023-05-15T05:26:13;0.32;;;0.28;;
42432;SDS011;28071;48.232;20.668;2023-05-15T05:31:14;0.17;;;0.17;;
42432;SDS011;28071;48.232;20.668;2023-05-15T05:36:14;0.40;;;0.40;;
42432;SDS011;28071;48.232;20.668;2023-05-15T05:41:15;1.00;;;0.90;;
42432;SDS011;28071;48.232;20.668;2023-05-15T05:46:15;0.85;;;0.52;;
42432;SDS011;28071;48.232;20.668;2023-05-15T05:51:16;1.30;;;0.55;;
42432;SDS011;28071;48.232;20.668;2023-05-15T05:56:16;0.73;;;0.30;;
42432;SDS011;28071;48.232;20.668;2023-05-15T06:01:16;0.70;;;0.52;;
42432;SDS011;28071;48.232;20.668;2023-05-15T06:06:17;0.20;;;0.20;;
42432;SDS011;28071;48.232;20.668;2023-05-15T06:11:17;0.43;;;0.43;;
42432;SDS011;28071;48.232;20.668;2023-05-15T06:16:18;0.55;;;0.55;;
42432;SDS011;28071;48.232;20.668;2023-05-15T06:21:18;0.82;;;0.40;;
42432;SDS011;28071;48.232;20.668;2023-05-15T06:26:19;0.60;;;0.40;;
42432;SDS011;28071;48.232;20.668;2023-05-15T06:31:20;0.43;;;0.40;;
42432;SDS011;28071;48.232;20.668;2023-05-15T06:36:21;0.85;;;0.60;;
42432;SDS011;28071;48.232;20.668;2023-05-15T06:41:21;1.35;;;1.25;;
42432;SDS011;28071;48.232;20.668;2023-05-15T06:46:22;0.30;;;0.20;;
42432;SDS011;28071;48.232;20.668;2023-05-15T06:51:22;0.38;;;0.30;;
42432;SDS011;28071;48.232;20.668;2023-05-15T06:56:23;0.45;;;0.30;;
42432;SDS011;28071;48.232;20.668;2023-05-15T07:01:23;0.25;;;0.25;;
42432;SDS011;28071;48.232;20.668;2023-05-15T07:06:24;0.73;;;0.57;;
42432;SDS011;28071;48.232;20.668;2023-05-15T07:11:25;0.40;;;0.40;;
42432;SDS011;28071;48.232;20.668;2023-05-15T07:16:26;0.57;;;0.57;;
42432;SDS011;28071;48.232;20.668;2023-05-15T07:21:26;2.88;;;1.05;;
42432;SDS011;28071;48.232;20.668;2023-05-15T07:26:27;0.47;;;0.47;;
42432;SDS011;28071;48.232;20.668;2023-05-15T07:31:27;0.32;;;0.25;;
42432;SDS011;28071;48.232;20.668;2023-05-15T07:36:27;0.15;;;0.15;;
42432;SDS011;28071;48.232;20.668;2023-05-15T07:41:28;0.40;;;0.40;;
42432;SDS011;28071;48.232;20.668;2023-05-15T07:46:29;0.50;;;0.50;;
42432;SDS011;28071;48.232;20.668;2023-05-15T07:51:30;0.77;;;0.52;;
42432;SDS011;28071;48.232;20.668;2023-05-15T07:56:31;1.90;;;0.70;;
42432;SDS011;28071;48.232;20.668;2023-05-15T08:01:32;0.47;;;0.47;;
42432;SDS011;28071;48.232;20.668;2023-05-15T08:06:32;0.77;;;0.60;;
42432;SDS011;28071;48.232;20.668;2023-05-15T08:11:34;1.23;;;0.35;;
42432;SDS011;28071;48.232;20.668;2023-05-15T08:16:35;2.67;;;0.93;;
42432;SDS011;28071;48.232;20.668;2023-05-15T08:21:35;0.98;;;0.90;;
42432;SDS011;28071;48.232;20.668;2023-05-15T08:26:36;0.75;;;0.70;;
42432;SDS011;28071;48.232;20.668;2023-05-15T08:31:36;2.72;;;1.15;;
42432;SDS011;28071;48.232;20.668;2023-05-15T08:36:37;0.93;;;0.50;;
42432;SDS011;28071;48.232;20.668;2023-05-15T08:41:48;0.75;;;0.57;;
42432;SDS011;28071;48.232;20.668;2023-05-15T08:47:10;0.43;;;0.43;;
42432;SDS011;28071;48.232;20.668;2023-05-15T08:52:11;0.70;;;0.70;;
42432;SDS011;28071;48.232;20.668;2023-05-15T08:57:12;1.10;;;0.77;;
42432;SDS011;28071;48.232;20.668;2023-05-15T09:02:14;1.70;;;0.75;;
42432;SDS011;28071;48.232;20.668;2023-05-15T09:07:15;1.00;;;0.60;;
42432;SDS011;28071;48.232;20.668;2023-05-15T09:12:16;1.05;;;0.80;;
42432;SDS011;28071;48.232;20.668;2023-05-15T09:17:18;0.93;;;0.77;;
42432;SDS011;28071;48.232;20.668;2023-05-15T09:22:19;0.73;;;0.40;;
42432;SDS011;28071;48.232;20.668;2023-05-15T09:27:24;0.95;;;0.90;;
42432;SDS011;28071;48.232;20.668;2023-05-15T09:32:25;1.95;;;0.73;;
42432;SDS011;28071;48.232;20.668;2023-05-15T09:37:30;1.10;;;0.70;;
42432;SDS011;28071;48.232;20.668;2023-05-15T09:42:33;3.30;;;1.35;;
42432;SDS011;28071;48.232;20.668;2023-05-15T09:47:35;1.67;;;0.75;;
42432;SDS011;28071;48.232;20.668;2023-05-15T09:52:35;1.25;;;0.70;;
42432;SDS011;28071;48.232;20.668;2023-05-15T09:57:36;1.17;;;0.88;;
42432;SDS011;28071;48.232;20.668;2023-05-15T10:02:38;0.80;;;0.80;;
42432;SDS011;28071;48.232;20.668;2023-05-15T10:07:40;1.08;;;0.43;;
42432;SDS011;28071;48.232;20.668;2023-05-15T10:12:40;1.25;;;1.15;;
42432;SDS011;28071;48.232;20.668;2023-05-15T10:17:41;0.60;;;0.60;;
42432;SDS011;28071;48.232;20.668;2023-05-15T10:22:47;1.45;;;0.85;;
42432;SDS011;28071;48.232;20.668;2023-05-15T10:27:49;0.77;;;0.70;;
42432;SDS011;28071;48.232;20.668;2023-05-15T10:32:51;2.25;;;0.80;;
42432;SDS011;28071;48.232;20.668;2023-05-15T10:37:52;1.02;;;0.85;;
42432;SDS011;28071;48.232;20.668;2023-05-15T10:42:53;1.23;;;0.73;;
42432;SDS011;28071;48.232;20.668;2023-05-15T10:47:54;0.85;;;0.85;;
42432;SDS011;28071;48.232;20.668;2023-05-15T10:52:56;1.10;;;0.80;;
42432;SDS011;28071;48.232;20.668;2023-05-15T10:57:56;1.17;;;1.08;;
42432;SDS011;28071;48.232;20.668;2023-05-15T11:02:57;1.50;;;1.27;;
42432;SDS011;28071;48.232;20.668;2023-05-15T11:13:18;0.65;;;0.52;;
42432;SDS011;28071;48.232;20.668;2023-05-15T11:18:19;1.08;;;0.80;;
42432;SDS011;28071;48.232;20.668;2023-05-15T11:23:20;2.22;;;0.85;;
42432;SDS011;28071;48.232;20.668;2023-05-15T11:28:22;1.20;;;1.00;;
42432;SDS011;28071;48.232;20.668;2023-05-15T11:33:23;1.15;;;0.85;;
42432;SDS011;28071;48.232;20.668;2023-05-15T11:38:24;1.30;;;0.75;;
42432;SDS011;28071;48.232;20.668;2023-05-15T11:48:30;0.85;;;0.85;;
42432;SDS011;28071;48.232;20.668;2023-05-15T11:53:32;0.95;;;0.43;;
42432;SDS011;28071;48.232;20.668;2023-05-15T11:58:34;1.05;;;0.60;;
42432;SDS011;28071;48.232;20.668;2023-05-15T12:03:34;0.70;;;0.60;;
42432;SDS011;28071;48.232;20.668;2023-05-15T12:08:35;2.08;;;0.82;;
42432;SDS011;28071;48.232;20.668;2023-05-15T12:13:37;1.00;;;0.75;;
42432;SDS011;28071;48.232;20.668;2023-05-15T12:18:37;1.30;;;1.00;;
42432;SDS011;28071;48.232;20.668;2023-05-15T12:23:38;0.65;;;0.65;;
42432;SDS011;28071;48.232;20.668;2023-05-15T12:28:38;0.50;;;0.50;;
42432;SDS011;28071;48.232;20.668;2023-05-15T12:33:39;1.02;;;0.93;;
42432;SDS011;28071;48.232;20.668;2023-05-15T12:38:39;1.10;;;0.70;;
42432;SDS011;28071;48.232;20.668;2023-05-15T12:43:40;1.63;;;1.20;;
42432;SDS011;28071;48.232;20.668;2023-05-15T12:48:40;2.97;;;0.73;;
42432;SDS011;28071;48.232;20.668;2023-05-15T12:53:41;1.55;;;1.17;;
42432;SDS011;28071;48.232;20.668;2023-05-15T12:58:41;1.15;;;1.00;;
42432;SDS011;28071;48.232;20.668;2023-05-15T13:03:42;2.72;;;1.80;;
42432;SDS011;28071;48.232;20.668;2023-05-15T13:08:43;0.98;;;0.90;;
42432;SDS011;28071;48.232;20.668;2023-05-15T13:13:44;0.93;;;0.93;;
42432;SDS011;28071;48.232;20.668;2023-05-15T13:18:46;1.27;;;1.02;;
42432;SDS011;28071;48.232;20.668;2023-05-15T13:23:47;4.78;;;2.13;;
42432;SDS011;28071;48.232;20.668;2023-05-15T13:28:47;1.10;;;0.85;;
42432;SDS011;28071;48.232;20.668;2023-05-15T13:33:48;1.85;;;0.70;;
42432;SDS011;28071;48.232;20.668;2023-05-15T13:38:48;1.52;;;0.80;;
42432;SDS011;28071;48.232;20.668;2023-05-15T13:43:48;1.33;;;0.82;;
42432;SDS011;28071;48.232;20.668;2023-05-15T13:48:50;0.60;;;0.60;;
42432;SDS011;28071;48.232;20.668;2023-05-15T13:53:50;1.23;;;0.93;;
42432;SDS011;28071;48.232;20.668;2023-05-15T13:58:51;1.13;;;0.75;;
42432;SDS011;28071;48.232;20.668;2023-05-15T14:03:51;0.80;;;0.77;;
42432;SDS011;28071;48.232;20.668;2023-05-15T14:08:52;1.45;;;0.80;;
42432;SDS011;28071;48.232;20.668;2023-05-15T14:13:53;1.30;;;0.85;;
42432;SDS011;28071;48.232;20.668;2023-05-15T14:18:53;0.77;;;0.57;;
42432;SDS011;28071;48.232;20.668;2023-05-15T14:23:54;1.20;;;1.05;;
42432;SDS011;28071;48.232;20.668;2023-05-15T14:28:55;1.60;;;1.00;;
42432;SDS011;28071;48.232;20.668;2023-05-15T14:33:55;1.50;;;0.88;;
42432;SDS011;28071;48.232;20.668;2023-05-15T14:38:55;1.48;;;1.20;;
42432;SDS011;28071;48.232;20.668;2023-05-15T14:43:56;1.10;;;0.90;;
42432;SDS011;28071;48.232;20.668;2023-05-15T14:48:56;1.25;;;1.15;;
42432;SDS011;28071;48.232;20.668;2023-05-15T14:53:57;3.08;;;1.00;;
42432;SDS011;28071;48.232;20.668;2023-05-15T14:58:57;2.03;;;1.13;;
42432;SDS011;28071;48.232;20.668;2023-05-15T15:03:58;3.17;;;1.55;;
42432;SDS011;28071;48.232;20.668;2023-05-15T15:08:58;3.15;;;1.80;;
42432;SDS011;28071;48.232;20.668;2023-05-15T15:13:59;2.25;;;1.02;;
42432;SDS011;28071;48.232;20.668;2023-05-15T15:18:59;1.95;;;1.23;;
42432;SDS011;28071;48.232;20.668;2023-05-15T15:24:00;2.00;;;1.80;;
42432;SDS011;28071;48.232;20.668;2023-05-15T15:29:00;1.95;;;1.45;;
42432;SDS011;28071;48.232;20.668;2023-05-15T15:34:01;2.15;;;1.33;;
42432;SDS011;28071;48.232;20.668;2023-05-15T15:39:01;2.05;;;1.30;;
42432;SDS011;28071;48.232;20.668;2023-05-15T15:44:03;0.88;;;0.60;;
42432;SDS011;28071;48.232;20.668;2023-05-15T15:49:03;0.77;;;0.60;;
42432;SDS011;28071;48.232;20.668;2023-05-15T15:54:04;0.65;;;0.57;;
42432;SDS011;28071;48.232;20.668;2023-05-15T15:59:05;0.90;;;0.90;;
42432;SDS011;28071;48.232;20.668;2023-05-15T16:04:05;1.80;;;0.93;;
42432;SDS011;28071;48.232;20.668;2023-05-15T16:09:06;0.70;;;0.55;;
42432;SDS011;28071;48.232;20.668;2023-05-15T16:14:06;1.08;;;0.88;;
42432;SDS011;28071;48.232;20.668;2023-05-15T16:19:06;1.67;;;1.25;;
42432;SDS011;28071;48.232;20.668;2023-05-15T16:24:07;7.50;;;1.73;;
42432;SDS011;28071;48.232;20.668;2023-05-15T16:29:07;1.00;;;0.80;;
42432;SDS011;28071;48.232;20.668;2023-05-15T16:34:08;0.98;;;0.68;;
42432;SDS011;28071;48.232;20.668;2023-05-15T16:39:08;1.13;;;0.77;;
42432;SDS011;28071;48.232;20.668;2023-05-15T16:44:09;0.88;;;0.70;;
42432;SDS011;28071;48.232;20.668;2023-05-15T16:49:12;3.00;;;0.90;;
42432;SDS011;28071;48.232;20.668;2023-05-15T16:54:12;1.42;;;0.80;;
42432;SDS011;28071;48.232;20.668;2023-05-15T16:59:13;1.45;;;0.85;;
42432;SDS011;28071;48.232;20.668;2023-05-15T17:04:13;0.98;;;0.75;;
42432;SDS011;28071;48.232;20.668;2023-05-15T17:09:14;1.25;;;0.70;;
42432;SDS011;28071;48.232;20.668;2023-05-15T17:14:14;1.63;;;0.98;;
42432;SDS011;28071;48.232;20.668;2023-05-15T17:19:15;1.52;;;0.95;;
42432;SDS011;28071;48.232;20.668;2023-05-15T17:24:15;0.50;;;0.50;;
42432;SDS011;28071;48.232;20.668;2023-05-15T17:29:16;0.55;;;0.50;;
42432;SDS011;28071;48.232;20.668;2023-05-15T17:34:16;0.50;;;0.45;;
42432;SDS011;28071;48.232;20.668;2023-05-15T17:39:17;0.55;;;0.50;;
42432;SDS011;28071;48.232;20.668;2023-05-15T17:44:17;1.05;;;0.70;;
42432;SDS011;28071;48.232;20.668;2023-05-15T17:49:17;1.33;;;0.93;;
42432;SDS011;28071;48.232;20.668;2023-05-15T17:54:18;0.63;;;0.60;;
42432;SDS011;28071;48.232;20.668;2023-05-15T17:59:19;1.02;;;0.63;;
42432;SDS011;28071;48.232;20.668;2023-05-15T18:04:19;1.52;;;1.00;;
42432;SDS011;28071;48.232;20.668;2023-05-15T18:09:20;1.50;;;0.32;;
42432;SDS011;28071;48.232;20.668;2023-05-15T18:14:20;0.98;;;0.73;;
42432;SDS011;28071;48.232;20.668;2023-05-15T18:19:21;1.67;;;0.90;;
42432;SDS011;28071;48.232;20.668;2023-05-15T18:24:21;0.55;;;0.55;;
42432;SDS011;28071;48.232;20.668;2023-05-15T18:29:22;1.98;;;0.90;;
42432;SDS011;28071;48.232;20.668;2023-05-15T18:34:22;0.63;;;0.60;;
42432;SDS011;28071;48.232;20.668;2023-05-15T18:39:23;1.55;;;0.77;;
42432;SDS011;28071;48.232;20.668;2023-05-15T18:44:23;1.10;;;0.77;;
42432;SDS011;28071;48.232;20.668;2023-05-15T18:49:24;0.95;;;0.57;;
42432;SDS011;28071;48.232;20.668;2023-05-15T18:54:24;1.20;;;0.70;;
42432;SDS011;28071;48.232;20.668;2023-05-15T18:59:25;1.85;;;1.13;;
42432;SDS011;28071;48.232;20.668;2023-05-15T19:04:26;1.08;;;0.60;;
42432;SDS011;28071;48.232;20.668;2023-05-15T19:09:26;1.38;;;1.00;;
42432;SDS011;28071;48.232;20.668;2023-05-15T19:14:27;1.02;;;0.88;;
42432;SDS011;28071;48.232;20.668;2023-05-15T19:19:27;0.70;;;0.55;;
42432;SDS011;28071;48.232;20.668;2023-05-15T19:24:28;1.10;;;1.00;;
42432;SDS011;28071;48.232;20.668;2023-05-15T19:29:28;0.85;;;0.55;;
42432;SDS011;28071;48.232;20.668;2023-05-15T19:34:29;1.02;;;0.90;;
42432;SDS011;28071;48.232;20.668;2023-05-15T19:39:29;0.80;;;0.55;;
42432;SDS011;28071;48.232;20.668;2023-05-15T19:44:30;0.55;;;0.52;;
42432;SDS011;28071;48.232;20.668;2023-05-15T19:49:30;1.05;;;0.95;;
42432;SDS011;28071;48.232;20.668;2023-05-15T19:54:30;1.10;;;0.60;;
42432;SDS011;28071;48.232;20.668;2023-05-15T19:59:31;7.00;;;1.08;;
42432;SDS011;28071;48.232;20.668;2023-05-15T20:04:32;1.27;;;1.02;;
42432;SDS011;28071;48.232;20.668;2023-05-15T20:09:32;0.77;;;0.60;;
42432;SDS011;28071;48.232;20.668;2023-05-15T20:14:33;1.08;;;0.95;;
42432;SDS011;28071;48.232;20.668;2023-05-15T20:19:34;1.52;;;1.13;;
42432;SDS011;28071;48.232;20.668;2023-05-15T20:24:34;1.50;;;0.80;;
42432;SDS011;28071;48.232;20.668;2023-05-15T20:29:35;1.85;;;1.02;;
42432;SDS011;28071;48.232;20.668;2023-05-15T20:34:35;0.98;;;0.82;;
42432;SDS011;28071;48.232;20.668;2023-05-15T20:39:36;1.23;;;1.10;;
42432;SDS011;28071;48.232;20.668;2023-05-15T20:44:36;1.70;;;1.27;;
42432;SDS011;28071;48.232;20.668;2023-05-15T20:49:38;2.28;;;1.33;;
42432;SDS011;28071;48.232;20.668;2023-05-15T20:54:38;1.60;;;1.08;;
42432;SDS011;28071;48.232;20.668;2023-05-15T20:59:39;2.38;;;1.40;;
42432;SDS011;28071;48.232;20.668;2023-05-15T21:04:39;1.10;;;0.85;;
42432;SDS011;28071;48.232;20.668;2023-05-15T21:09:40;1.80;;;1.15;;
42432;SDS011;28071;48.232;20.668;2023-05-15T21:14:40;2.47;;;1.40;;
42432;SDS011;28071;48.232;20.668;2023-05-15T21:19:41;5.68;;;1.77;;
42432;SDS011;28071;48.232;20.668;2023-05-15T21:24:41;1.42;;;1.02;;
42432;SDS011;28071;48.232;20.668;2023-05-15T21:29:42;2.53;;;1.63;;
42432;SDS011;28071;48.232;20.668;2023-05-15T21:34:42;3.58;;;1.95;;
42432;SDS011;28071;48.232;20.668;2023-05-15T21:39:42;2.22;;;1.88;;
42432;SDS011;28071;48.232;20.668;2023-05-15T21:44:43;4.28;;;3.15;;
42432;SDS011;28071;48.232;20.668;2023-05-15T21:49:43;4.28;;;2.42;;
42432;SDS011;28071;48.232;20.668;2023-05-15T21:54:44;2.75;;;1.33;;
42432;SDS011;28071;48.232;20.668;2023-05-15T21:59:44;4.63;;;2.47;;
42432;SDS011;28071;48.232;20.668;2023-05-15T22:04:45;1.80;;;0.93;;
42432;SDS011;28071;48.232;20.668;2023-05-15T22:09:45;4.22;;;1.33;;
42432;SDS011;28071;48.232;20.668;2023-05-15T22:14:46;1.70;;;1.08;;
42432;SDS011;28071;48.232;20.668;2023-05-15T22:19:46;8.77;;;1.60;;
42432;SDS011;28071;48.232;20.668;2023-05-15T22:24:47;1.23;;;1.05;;
42432;SDS011;28071;48.232;20.668;2023-05-15T22:29:47;1.42;;;1.10;;
42432;SDS011;28071;48.232;20.668;2023-05-15T22:34:48;1.00;;;0.80;;
42432;SDS011;28071;48.232;20.668;2023-05-15T22:39:48;1.58;;;1.15;;
42432;SDS011;28071;48.232;20.668;2023-05-15T22:44:49;2.38;;;1.55;;
42432;SDS011;28071;48.232;20.668;2023-05-15T22:49:49;1.55;;;1.42;;
42432;SDS011;28071;48.232;20.668;2023-05-15T22:54:50;1.58;;;0.82;;
42432;SDS011;28071;48.232;20.668;2023-05-15T22:59:50;1.80;;;1.38;;
42432;SDS011;28071;48.232;20.668;2023-05-15T23:04:52;1.80;;;1.40;;
42432;SDS011;28071;48.232;20.668;2023-05-15T23:09:53;1.67;;;1.40;;
42432;SDS011;28071;48.232;20.668;2023-05-15T23:14:53;2.53;;;1.58;;
42432;SDS011;28071;48.232;20.668;2023-05-15T23:19:54;3.03;;;1.60;;
42432;SDS011;28071;48.232;20.668;2023-05-15T23:24:54;4.22;;;2.10;;
42432;SDS011;28071;48.232;20.668;2023-05-15T23:29:54;3.40;;;2.63;;
42432;SDS011;28071;48.232;20.668;2023-05-15T23:34:55;2.25;;;1.55;;
42432;SDS011;28071;48.232;20.668;2023-05-15T23:39:57;5.55;;;4.00;;
42432;SDS011;28071;48.232;20.668;2023-05-15T23:44:57;6.40;;;4.18;;
42432;SDS011;28071;48.232;20.668;2023-05-15T23:49:58;4.07;;;1.67;;
42432;SDS011;28071;48.232;20.668;2023-05-15T23:54:58;5.00;;;4.38;;
42432;SDS011;28071;48.232;20.668;2023-05-15T23:59:59;3.90;;;2.15;;
